createdAt,value
2017-11-24T00:00:38.891Z,97.66
2017-11-24T00:01:48.608Z,98.03
2017-11-24T00:02:58.597Z,98.13
2017-11-24T00:04:08.573Z,98.51
2017-11-24T00:05:18.270Z,98.32
2017-11-24T00:06:28.263Z,99.08
2017-11-24T00:07:38.239Z,98.7
2017-11-24T00:08:48.216Z,98.85
2017-11-24T00:09:57.942Z,98.94
2017-11-24T00:11:07.648Z,98.85
2017-11-24T00:12:17.621Z,98.56
2017-11-24T00:13:26.801Z,99.51
2017-11-24T00:14:36.773Z,99.6
2017-11-24T00:15:46.758Z,99.7
2017-11-24T00:16:56.735Z,99.99
2017-11-24T00:18:06.187Z,99.99
2017-11-24T00:19:15.898Z,99.99
2017-11-24T00:20:25.361Z,99.99
2017-11-24T00:21:35.346Z,99.99
2017-11-24T00:22:45.302Z,99.99
2017-11-24T00:23:55.279Z,99.99
2017-11-24T00:25:04.982Z,99.99
2017-11-24T00:26:14.976Z,99.99
2017-11-24T00:27:24.693Z,99.99
2017-11-24T00:28:34.684Z,99.99
2017-11-24T00:29:44.399Z,99.99
2017-11-24T00:30:54.113Z,99.99
2017-11-24T00:32:03.564Z,99.99
2017-11-24T00:33:13.557Z,99.99
2017-11-24T00:34:23.305Z,99.99
2017-11-24T00:35:33.293Z,99.99
2017-11-24T00:36:43.005Z,99.99
2017-11-24T00:37:52.973Z,99.99
2017-11-24T00:39:02.425Z,99.99
2017-11-24T00:40:11.881Z,99.99
2017-11-24T00:41:21.853Z,99.99
2017-11-24T00:42:31.294Z,99.99
2017-11-24T00:43:41.010Z,99.99
2017-11-24T00:44:50.460Z,99.99
2017-11-24T00:46:00.439Z,99.99
2017-11-24T00:47:10.404Z,99.99
2017-11-24T00:48:20.387Z,99.99
2017-11-24T00:49:30.412Z,99.99
2017-11-24T00:50:39.601Z,99.99
2017-11-24T00:51:49.571Z,99.99
2017-11-24T00:52:59.542Z,99.99
2017-11-24T00:54:09.504Z,99.99
2017-11-24T00:55:19.480Z,99.99
2017-11-24T00:56:29.195Z,99.99
2017-11-24T00:57:39.178Z,99.99
2017-11-24T00:58:49.173Z,99.99
2017-11-24T00:59:58.621Z,99.99
2017-11-24T01:01:08.333Z,99.99
2017-11-24T01:02:18.312Z,99.99
2017-11-24T01:03:28.324Z,99.99
2017-11-24T01:04:38.297Z,99.99
2017-11-24T01:05:47.746Z,99.99
2017-11-24T01:06:57.722Z,99.99
2017-11-24T01:08:07.425Z,99.99
2017-11-24T01:09:17.427Z,99.99
2017-11-24T01:10:27.415Z,99.99
2017-11-24T01:11:37.140Z,99.99
2017-11-24T01:12:46.593Z,99.99
2017-11-24T01:13:56.292Z,99.99
2017-11-24T01:15:05.472Z,99.99
2017-11-24T01:16:15.172Z,99.99
2017-11-24T01:17:24.877Z,99.99
2017-11-24T01:18:34.060Z,99.99
2017-11-24T01:19:44.041Z,99.99
2017-11-24T01:20:53.768Z,99.99
2017-11-24T01:22:03.498Z,99.99
2017-11-24T01:23:13.207Z,99.99
2017-11-24T01:24:23.210Z,99.99
2017-11-24T01:25:32.916Z,99.99
2017-11-24T01:26:42.874Z,99.99
2017-11-24T01:27:52.576Z,99.99
2017-11-24T01:29:02.295Z,99.99
2017-11-24T01:30:12.000Z,99.99
2017-11-24T01:31:21.969Z,99.99
2017-11-24T01:32:30.897Z,99.99
2017-11-24T01:33:40.100Z,99.99
2017-11-24T01:34:49.549Z,99.99
2017-11-24T01:35:59.001Z,99.99
2017-11-24T01:37:08.460Z,99.99
2017-11-24T01:38:18.434Z,99.99
2017-11-24T01:39:27.881Z,99.99
2017-11-24T01:40:37.057Z,99.99
2017-11-24T01:41:46.513Z,99.99
2017-11-24T01:42:56.482Z,99.99
2017-11-24T01:44:05.669Z,99.99
2017-11-24T01:45:15.650Z,99.99
2017-11-24T01:46:25.652Z,99.99
2017-11-24T01:47:35.665Z,99.99
2017-11-24T01:48:45.671Z,99.99
2017-11-24T01:49:55.418Z,99.99
2017-11-24T01:51:05.395Z,99.99
2017-11-24T01:52:15.097Z,99.99
2017-11-24T01:53:25.097Z,99.99
2017-11-24T01:54:34.562Z,99.99
2017-11-24T01:55:43.776Z,99.99
2017-11-24T01:56:53.760Z,99.99
2017-11-24T01:58:03.485Z,99.99
2017-11-24T01:59:13.233Z,99.99
2017-11-24T02:00:22.962Z,99.99
2017-11-24T02:01:32.693Z,99.99
2017-11-24T02:02:42.401Z,99.99
2017-11-24T02:03:52.365Z,99.99
2017-11-24T02:05:02.076Z,99.99
2017-11-24T02:06:11.783Z,99.99
2017-11-24T02:07:21.241Z,99.99
2017-11-24T02:08:30.686Z,99.99
2017-11-24T02:09:40.674Z,99.99
2017-11-24T02:10:50.675Z,99.99
2017-11-24T02:12:00.423Z,99.99
2017-11-24T02:13:09.879Z,99.99
2017-11-24T02:14:19.890Z,99.99
2017-11-24T02:15:29.592Z,99.99
2017-11-24T02:16:39.036Z,99.99
2017-11-24T02:17:48.501Z,99.99
2017-11-24T02:18:58.495Z,99.99
2017-11-24T02:20:07.952Z,99.99
2017-11-24T02:21:17.920Z,99.99
2017-11-24T02:22:27.650Z,99.99
2017-11-24T02:23:37.113Z,99.99
2017-11-24T02:24:46.837Z,99.99
2017-11-24T02:25:56.300Z,99.99
2017-11-24T02:27:06.301Z,99.99
2017-11-24T02:28:15.749Z,99.99
2017-11-24T02:29:25.726Z,99.99
2017-11-24T02:30:35.702Z,99.99
2017-11-24T02:31:45.674Z,99.99
2017-11-24T02:32:55.395Z,99.99
2017-11-24T02:34:05.422Z,99.99
2017-11-24T02:35:15.417Z,99.99
2017-11-24T02:36:25.385Z,99.99
2017-11-24T02:37:35.108Z,99.99
2017-11-24T02:38:45.077Z,99.99
2017-11-24T02:39:55.067Z,99.99
2017-11-24T02:41:04.778Z,99.99
2017-11-24T02:42:14.499Z,99.99
2017-11-24T02:43:23.942Z,99.99
2017-11-24T02:44:33.929Z,99.99
2017-11-24T02:45:43.657Z,99.99
2017-11-24T02:46:53.638Z,99.99
2017-11-24T02:48:03.078Z,99.99
2017-11-24T02:49:12.522Z,99.99
2017-11-24T02:50:22.237Z,99.99
2017-11-24T02:51:32.215Z,99.99
2017-11-24T02:52:41.936Z,99.99
2017-11-24T02:53:51.656Z,99.99
2017-11-24T02:55:01.402Z,99.99
2017-11-24T02:56:11.116Z,99.99
2017-11-24T02:57:20.830Z,99.99
2017-11-24T02:58:30.543Z,99.99
2017-11-24T02:59:39.998Z,99.99
2017-11-24T03:00:49.705Z,99.99
2017-11-24T03:01:59.404Z,99.99
2017-11-24T03:03:09.372Z,99.99
2017-11-24T03:04:19.352Z,99.99
2017-11-24T03:05:29.334Z,99.99
2017-11-24T03:06:39.295Z,99.99
2017-11-24T03:07:49.289Z,99.99
2017-11-24T03:08:59.265Z,99.99
2017-11-24T03:10:08.962Z,99.99
2017-11-24T03:11:18.935Z,99.99
2017-11-24T03:12:28.656Z,99.99
2017-11-24T03:13:38.101Z,99.99
2017-11-24T03:14:47.816Z,99.99
2017-11-24T03:15:57.780Z,99.99
2017-11-24T03:17:07.744Z,99.99
2017-11-24T03:18:17.197Z,99.99
2017-11-24T03:19:27.171Z,99.99
2017-11-24T03:20:36.909Z,99.99
2017-11-24T03:21:46.913Z,99.99
2017-11-24T03:22:56.632Z,99.99
2017-11-24T03:24:06.097Z,99.99
2017-11-24T03:25:15.566Z,99.99
2017-11-24T03:26:25.549Z,99.99
2017-11-24T03:27:35.004Z,99.99
2017-11-24T03:28:44.983Z,99.99
2017-11-24T03:29:54.973Z,99.99
2017-11-24T03:31:04.952Z,99.99
2017-11-24T03:32:14.704Z,99.99
2017-11-24T03:33:24.147Z,99.99
2017-11-24T03:34:33.582Z,99.99
2017-11-24T03:35:43.444Z,99.99
2017-11-24T03:36:53.160Z,99.99
2017-11-24T03:38:02.880Z,99.99
2017-11-24T03:39:13.000Z,99.99
2017-11-24T03:40:22.459Z,99.99
2017-11-24T03:41:31.899Z,99.99
2017-11-24T03:42:41.613Z,99.99
2017-11-24T03:43:51.325Z,99.99
2017-11-24T03:45:01.044Z,99.99
2017-11-24T03:46:10.763Z,99.99
2017-11-24T03:47:20.230Z,99.99
2017-11-24T03:48:30.196Z,99.99
2017-11-24T03:49:40.179Z,99.99
2017-11-24T03:50:49.931Z,99.99
2017-11-24T03:51:59.639Z,99.99
2017-11-24T03:53:09.624Z,99.99
2017-11-24T03:54:19.325Z,99.99
2017-11-24T03:55:29.299Z,99.99
2017-11-24T03:56:39.015Z,99.99
2017-11-24T03:57:48.464Z,99.99
2017-11-24T03:58:58.446Z,99.99
2017-11-24T04:00:08.175Z,99.99
2017-11-24T04:01:17.895Z,99.99
2017-11-24T04:02:27.856Z,99.99
2017-11-24T04:03:37.568Z,99.99
2017-11-24T04:04:47.265Z,99.99
2017-11-24T04:05:56.720Z,99.99
2017-11-24T04:07:06.689Z,99.99
2017-11-24T04:08:16.423Z,99.99
2017-11-24T04:09:26.166Z,99.99
2017-11-24T04:10:36.148Z,99.99
2017-11-24T04:11:45.853Z,99.99
2017-11-24T04:12:55.596Z,99.99
2017-11-24T04:14:05.306Z,99.99
2017-11-24T04:15:15.305Z,99.99
2017-11-24T04:16:25.024Z,99.99
2017-11-24T04:17:34.737Z,99.99
2017-11-24T04:18:44.437Z,99.99
2017-11-24T04:19:54.144Z,99.99
2017-11-24T04:21:04.201Z,99.99
2017-11-24T04:22:14.196Z,99.99
2017-11-24T04:23:24.160Z,99.99
2017-11-24T04:24:34.142Z,99.99
2017-11-24T04:25:43.860Z,99.99
2017-11-24T04:26:53.574Z,99.99
2017-11-24T04:28:03.293Z,99.99
2017-11-24T04:29:13.001Z,99.99
2017-11-24T04:30:22.966Z,99.99
2017-11-24T04:31:32.679Z,99.99
2017-11-24T04:32:42.132Z,99.99
2017-11-24T04:33:51.840Z,99.99
2017-11-24T04:35:01.804Z,99.99
2017-11-24T04:36:11.797Z,99.99
2017-11-24T04:37:21.509Z,99.99
2017-11-24T04:38:30.957Z,99.99
2017-11-24T04:39:40.404Z,99.99
2017-11-24T04:40:49.851Z,99.99
2017-11-24T04:41:59.821Z,99.99
2017-11-24T04:43:09.555Z,99.99
2017-11-24T04:44:19.528Z,99.99
2017-11-24T04:45:29.490Z,99.99
2017-11-24T04:46:38.953Z,99.99
2017-11-24T04:47:48.408Z,99.99
2017-11-24T04:48:58.379Z,99.99
2017-11-24T04:50:08.355Z,99.99
2017-11-24T04:51:18.361Z,99.99
2017-11-24T04:52:28.359Z,99.99
2017-11-24T04:53:38.073Z,99.99
2017-11-24T04:54:47.788Z,99.99
2017-11-24T04:55:57.496Z,99.99
2017-11-24T04:57:07.465Z,99.99
2017-11-24T04:58:17.440Z,99.99
2017-11-24T04:59:27.155Z,99.99
2017-11-24T05:00:36.876Z,99.99
2017-11-24T05:01:46.319Z,99.99
2017-11-24T05:02:56.299Z,99.99
2017-11-24T05:04:05.792Z,99.99
2017-11-24T05:05:15.785Z,99.99
2017-11-24T05:06:25.533Z,99.99
2017-11-24T05:07:35.520Z,99.99
2017-11-24T05:08:45.233Z,99.99
2017-11-24T05:09:55.209Z,99.99
2017-11-24T05:11:05.177Z,99.99
2017-11-24T05:12:14.895Z,99.99
2017-11-24T05:13:24.869Z,99.99
2017-11-24T05:14:34.853Z,99.99
2017-11-24T05:15:44.567Z,99.99
2017-11-24T05:16:54.263Z,99.99
2017-11-24T05:18:03.973Z,99.99
2017-11-24T05:19:13.931Z,99.99
2017-11-24T05:20:23.657Z,99.99
2017-11-24T05:21:33.619Z,99.99
2017-11-24T05:22:43.336Z,99.99
2017-11-24T05:23:53.044Z,99.99
2017-11-24T05:25:02.482Z,99.99
2017-11-24T05:26:12.205Z,99.99
2017-11-24T05:27:22.168Z,99.99
2017-11-24T05:28:32.134Z,99.99
2017-11-24T05:29:41.861Z,99.99
2017-11-24T05:30:51.888Z,99.99
2017-11-24T05:32:01.873Z,99.99
2017-11-24T05:33:11.607Z,99.99
2017-11-24T05:34:21.319Z,99.99
2017-11-24T05:35:30.512Z,99.99
2017-11-24T05:36:40.235Z,99.99
2017-11-24T05:37:49.956Z,99.99
2017-11-24T05:38:59.663Z,99.99
2017-11-24T05:40:09.124Z,99.99
2017-11-24T05:41:18.833Z,99.99
2017-11-24T05:42:28.817Z,99.99
2017-11-24T05:43:38.255Z,99.99
2017-11-24T05:44:47.435Z,99.99
2017-11-24T05:45:57.406Z,99.99
2017-11-24T05:47:07.383Z,99.99
2017-11-24T05:48:17.360Z,99.99
2017-11-24T05:49:27.091Z,99.99
2017-11-24T05:50:36.806Z,99.99
2017-11-24T05:51:46.515Z,99.99
2017-11-24T05:52:56.496Z,99.99
2017-11-24T05:54:06.454Z,99.99
2017-11-24T05:55:16.422Z,99.99
2017-11-24T05:56:26.416Z,99.99
2017-11-24T05:57:36.136Z,99.99
2017-11-24T05:58:45.593Z,99.99
2017-11-24T05:59:55.569Z,99.99
2017-11-24T06:01:05.277Z,99.99
2017-11-24T06:02:15.251Z,99.99
2017-11-24T06:03:24.958Z,99.99
2017-11-24T06:04:34.950Z,99.99
2017-11-24T06:05:44.401Z,99.99
2017-11-24T06:06:54.372Z,99.99
2017-11-24T06:08:04.085Z,99.99
2017-11-24T06:09:14.071Z,99.99
2017-11-24T06:10:24.036Z,99.99
2017-11-24T06:11:34.040Z,99.99
2017-11-24T06:12:44.008Z,99.99
2017-11-24T06:13:53.715Z,99.99
2017-11-24T06:15:03.187Z,99.99
2017-11-24T06:16:12.907Z,99.99
2017-11-24T06:17:22.903Z,99.99
2017-11-24T06:18:32.887Z,99.99
2017-11-24T06:19:42.586Z,99.99
2017-11-24T06:20:52.553Z,99.99
2017-11-24T06:22:02.531Z,99.99
2017-11-24T06:23:11.979Z,99.99
2017-11-24T06:24:21.721Z,99.99
2017-11-24T06:25:31.429Z,99.99
2017-11-24T06:26:41.146Z,99.99
2017-11-24T06:27:51.111Z,99.99
2017-11-24T06:29:00.829Z,99.99
2017-11-24T06:30:10.838Z,99.99
2017-11-24T06:31:20.845Z,99.99
2017-11-24T06:32:30.831Z,99.99
2017-11-24T06:33:40.555Z,99.99
2017-11-24T06:34:50.526Z,99.99
2017-11-24T06:36:00.511Z,99.99
2017-11-24T06:37:10.238Z,99.99
2017-11-24T06:38:20.203Z,99.99
2017-11-24T06:39:29.926Z,99.99
2017-11-24T06:40:39.913Z,99.99
2017-11-24T06:41:49.670Z,99.99
2017-11-24T06:42:59.382Z,99.99
2017-11-24T06:44:09.357Z,99.99
2017-11-24T06:45:19.067Z,99.99
2017-11-24T06:46:29.063Z,99.99
2017-11-24T06:47:38.521Z,99.99
2017-11-24T06:48:47.969Z,99.99
2017-11-24T06:49:57.676Z,99.99
2017-11-24T06:51:07.660Z,99.99
2017-11-24T06:52:17.651Z,99.99
2017-11-24T06:53:27.623Z,99.99
2017-11-24T06:54:37.343Z,99.99
2017-11-24T06:55:47.332Z,99.99
2017-11-24T06:56:57.313Z,99.99
2017-11-24T06:58:07.360Z,99.99
2017-11-24T06:59:16.815Z,99.99
2017-11-24T07:00:26.800Z,99.99
2017-11-24T07:01:36.265Z,99.99
2017-11-24T07:02:45.974Z,99.99
2017-11-24T07:03:55.684Z,99.99
2017-11-24T07:05:05.140Z,99.99
2017-11-24T07:06:15.134Z,99.99
2017-11-24T07:07:24.855Z,99.99
2017-11-24T07:08:34.836Z,99.99
2017-11-24T07:09:44.554Z,99.99
2017-11-24T07:10:54.562Z,99.99
2017-11-24T07:12:04.586Z,99.99
2017-11-24T07:13:14.571Z,99.99
2017-11-24T07:14:24.277Z,99.99
2017-11-24T07:15:34.246Z,99.99
2017-11-24T07:16:43.952Z,99.99
2017-11-24T07:17:53.924Z,99.99
2017-11-24T07:19:03.672Z,99.99
2017-11-24T07:20:13.410Z,99.99
2017-11-24T07:21:23.143Z,99.99
2017-11-24T07:22:33.150Z,99.99
2017-11-24T07:23:42.608Z,99.99
2017-11-24T07:24:52.328Z,99.99
2017-11-24T07:26:02.033Z,99.99
2017-11-24T07:27:11.994Z,99.99
2017-11-24T07:28:21.726Z,99.99
2017-11-24T07:29:31.445Z,99.99
2017-11-24T07:30:41.426Z,99.99
2017-11-24T07:31:51.404Z,99.99
2017-11-24T07:33:00.855Z,99.99
2017-11-24T07:34:10.559Z,99.99
2017-11-24T07:35:20.533Z,99.99
2017-11-24T07:36:30.007Z,99.99
2017-11-24T07:37:39.728Z,99.99
2017-11-24T07:38:49.447Z,99.99
2017-11-24T07:39:58.903Z,99.99
2017-11-24T07:41:08.628Z,99.99
2017-11-24T07:42:18.660Z,99.99
2017-11-24T07:43:28.656Z,99.99
2017-11-24T07:44:38.111Z,99.99
2017-11-24T07:45:47.563Z,99.99
2017-11-24T07:46:57.539Z,99.99
2017-11-24T07:48:06.997Z,99.99
2017-11-24T07:49:16.179Z,99.99
2017-11-24T07:50:25.626Z,99.99
2017-11-24T07:51:35.335Z,99.99
2017-11-24T07:52:45.055Z,99.99
2017-11-24T07:53:54.510Z,99.99
2017-11-24T07:55:04.279Z,99.99
2017-11-24T07:56:13.731Z,99.99
2017-11-24T07:57:23.732Z,99.99
2017-11-24T07:58:33.444Z,99.99
2017-11-24T07:59:43.424Z,99.99
2017-11-24T08:00:53.413Z,99.99
2017-11-24T08:02:03.133Z,99.99
2017-11-24T08:03:12.840Z,99.99
2017-11-24T08:04:22.569Z,99.99
2017-11-24T08:05:32.323Z,99.99
2017-11-24T08:06:42.058Z,99.99
2017-11-24T08:07:52.199Z,99.99
2017-11-24T08:09:02.526Z,99.99
2017-11-24T08:10:12.493Z,99.99
2017-11-24T08:11:22.244Z,99.99
2017-11-24T08:12:31.689Z,99.99
2017-11-24T08:13:41.653Z,99.99
2017-11-24T08:14:51.617Z,99.99
2017-11-24T08:16:01.645Z,99.99
2017-11-24T08:17:11.369Z,99.99
2017-11-24T08:18:21.409Z,99.99
2017-11-24T08:19:30.876Z,99.99
2017-11-24T08:20:40.881Z,99.99
2017-11-24T08:21:50.868Z,99.99
2017-11-24T08:23:00.592Z,99.99
2017-11-24T08:24:10.584Z,99.99
2017-11-24T08:25:20.328Z,99.99
2017-11-24T08:26:30.295Z,99.99
2017-11-24T08:27:40.033Z,99.99
2017-11-24T08:28:50.037Z,99.99
2017-11-24T08:29:59.763Z,99.99
2017-11-24T08:31:09.489Z,99.99
2017-11-24T08:32:19.467Z,99.99
2017-11-24T08:33:29.192Z,99.99
2017-11-24T08:34:38.961Z,99.99
2017-11-24T08:35:48.964Z,99.99
2017-11-24T08:36:58.686Z,99.99
2017-11-24T08:38:08.139Z,99.99
2017-11-24T08:39:18.126Z,99.99
2017-11-24T08:40:27.872Z,99.99
2017-11-24T08:41:37.092Z,99.99
2017-11-24T08:42:46.540Z,99.99
2017-11-24T08:43:56.539Z,99.99
2017-11-24T08:45:06.033Z,99.99
2017-11-24T08:46:16.024Z,99.99
2017-11-24T08:47:25.475Z,99.99
2017-11-24T08:48:35.460Z,99.99
2017-11-24T08:49:45.178Z,99.99
2017-11-24T08:50:54.898Z,99.99
2017-11-24T08:52:04.711Z,99.99
2017-11-24T08:53:14.737Z,99.99
2017-11-24T08:54:24.450Z,99.99
2017-11-24T08:55:33.921Z,99.99
2017-11-24T08:56:43.890Z,99.99
2017-11-24T08:57:53.613Z,99.99
2017-11-24T08:59:03.324Z,99.99
2017-11-24T09:00:13.049Z,99.99
2017-11-24T09:01:23.023Z,99.99
2017-11-24T09:02:33.202Z,99.99
2017-11-24T09:03:43.206Z,99.99
2017-11-24T09:04:52.949Z,99.99
2017-11-24T09:06:02.678Z,99.99
2017-11-24T09:07:12.389Z,99.99
2017-11-24T09:08:22.422Z,99.99
2017-11-24T09:09:32.402Z,99.99
2017-11-24T09:10:42.131Z,99.99
2017-11-24T09:11:52.102Z,99.99
2017-11-24T09:13:01.830Z,99.99
2017-11-24T09:14:11.838Z,99.99
2017-11-24T09:15:21.599Z,99.99
2017-11-24T09:16:31.336Z,99.99
2017-11-24T09:17:41.067Z,99.99
2017-11-24T09:18:50.250Z,99.99
2017-11-24T09:20:00.227Z,99.99
2017-11-24T09:21:10.203Z,99.99
2017-11-24T09:22:19.928Z,99.99
2017-11-24T09:23:29.631Z,99.99
2017-11-24T09:24:39.619Z,99.99
2017-11-24T09:25:49.349Z,99.99
2017-11-24T09:26:59.093Z,99.99
2017-11-24T09:28:08.813Z,99.95
2017-11-24T09:29:18.528Z,99.99
2017-11-24T09:30:28.507Z,99.95
2017-11-24T09:31:38.529Z,99.75
2017-11-24T09:32:48.303Z,99.75
2017-11-24T09:33:58.021Z,98.9
2017-11-24T09:35:08.014Z,98.51
2017-11-24T09:36:17.991Z,98.27
2017-11-24T09:37:27.980Z,98.18
2017-11-24T09:38:37.710Z,97.03
2017-11-24T09:39:47.727Z,96.46
2017-11-24T09:40:57.292Z,95.27
2017-11-24T09:42:06.757Z,94.98
2017-11-24T09:43:16.212Z,94.7
2017-11-24T09:44:26.210Z,94.41
2017-11-24T09:45:35.962Z,94.22
2017-11-24T09:46:45.686Z,93.65
2017-11-24T09:47:55.684Z,93.65
2017-11-24T09:49:05.167Z,93.74
2017-11-24T09:50:14.622Z,93.65
2017-11-24T09:51:23.835Z,94.03
2017-11-24T09:52:33.562Z,93.93
2017-11-24T09:53:43.551Z,94.03
2017-11-24T09:54:53.547Z,93.74
2017-11-24T09:56:03.537Z,93.7
2017-11-24T09:57:12.739Z,93.5
2017-11-24T09:58:22.467Z,93.6
2017-11-24T09:59:32.029Z,93.36
2017-11-24T10:00:41.755Z,93.55
2017-11-24T10:01:51.468Z,93.12
2017-11-24T10:03:01.187Z,93.17
2017-11-24T10:04:11.218Z,93.65
2017-11-24T10:05:20.682Z,93.93
2017-11-24T10:06:30.692Z,92.79
2017-11-24T10:07:40.156Z,91.97
2017-11-24T10:08:50.137Z,92.55
2017-11-24T10:10:00.122Z,92.16
2017-11-24T10:11:10.110Z,91.97
2017-11-24T10:12:20.123Z,92.07
2017-11-24T10:13:30.102Z,91.88
2017-11-24T10:14:39.811Z,91.83
2017-11-24T10:15:49.798Z,92.26
2017-11-24T10:16:59.549Z,92.02
2017-11-24T10:18:09.532Z,92.02
2017-11-24T10:19:19.253Z,92.11
2017-11-24T10:20:28.965Z,91.16
2017-11-24T10:21:38.693Z,91.54
2017-11-24T10:22:48.417Z,91.64
2017-11-24T10:23:57.891Z,91.54
2017-11-24T10:25:07.672Z,92.11
2017-11-24T10:26:16.941Z,91.54
2017-11-24T10:27:26.674Z,91.06
2017-11-24T10:28:36.126Z,90.88
2017-11-24T10:29:46.145Z,90.59
2017-11-24T10:30:55.862Z,90.2
2017-11-24T10:32:05.591Z,89.53
2017-11-24T10:33:14.797Z,89.48
2017-11-24T10:34:24.543Z,88.91
2017-11-24T10:35:34.264Z,88.15
2017-11-24T10:36:44.244Z,87.48
2017-11-24T10:37:53.985Z,87.04
2017-11-24T10:39:03.739Z,87.14
2017-11-24T10:40:13.466Z,86.47
2017-11-24T10:41:23.202Z,85.89
2017-11-24T10:42:33.187Z,85.89
2017-11-24T10:43:42.904Z,86.66
2017-11-24T10:44:52.377Z,86.47
2017-11-24T10:46:02.104Z,86.37
2017-11-24T10:47:11.859Z,86.37
2017-11-24T10:48:21.861Z,86.85
2017-11-24T10:49:31.572Z,87.04
2017-11-24T10:50:41.293Z,87.04
2017-11-24T10:51:51.084Z,87.14
2017-11-24T10:53:01.084Z,86.85
2017-11-24T10:54:10.830Z,86.85
2017-11-24T10:55:20.580Z,86.76
2017-11-24T10:56:30.316Z,86.28
2017-11-24T10:57:40.131Z,86.94
2017-11-24T10:58:49.596Z,86.85
2017-11-24T10:59:59.306Z,86.57
2017-11-24T11:01:09.074Z,86.85
2017-11-24T11:02:19.131Z,86.76
2017-11-24T11:03:29.123Z,86.57
2017-11-24T11:04:38.634Z,86.94
2017-11-24T11:05:48.635Z,87.04
2017-11-24T11:06:58.349Z,87.14
2017-11-24T11:08:07.817Z,87.04
2017-11-24T11:09:17.817Z,87.23
2017-11-24T11:10:27.547Z,86.76
2017-11-24T11:11:37.276Z,87.04
2017-11-24T11:12:46.486Z,87.23
2017-11-24T11:13:56.480Z,87.23
2017-11-24T11:15:06.486Z,87.14
2017-11-24T11:16:16.216Z,87.14
2017-11-24T11:17:26.208Z,86.94
2017-11-24T11:18:36.205Z,87.04
2017-11-24T11:19:46.289Z,86.94
2017-11-24T11:20:56.307Z,86.85
2017-11-24T11:22:05.782Z,87.23
2017-11-24T11:23:15.260Z,86.85
2017-11-24T11:24:25.238Z,87.23
2017-11-24T11:25:34.980Z,87.62
2017-11-24T11:26:44.706Z,87.81
2017-11-24T11:27:54.708Z,87.71
2017-11-24T11:29:04.702Z,87.52
2017-11-24T11:30:14.407Z,87.43
2017-11-24T11:31:23.615Z,87.81
2017-11-24T11:32:33.602Z,87.71
2017-11-24T11:33:43.346Z,87.62
2017-11-24T11:34:52.785Z,87.76
2017-11-24T11:36:02.511Z,87.71
2017-11-24T11:37:11.975Z,87.52
2017-11-24T11:38:22.014Z,87.52
2017-11-24T11:39:32.025Z,87.71
2017-11-24T11:40:42.016Z,87.62
2017-11-24T11:41:52.004Z,87.62
2017-11-24T11:43:01.980Z,87.23
2017-11-24T11:44:11.692Z,87.62
2017-11-24T11:45:21.176Z,87.23
2017-11-24T11:46:30.638Z,87.43
2017-11-24T11:47:40.409Z,87.14
2017-11-24T11:48:50.456Z,87.04
2017-11-24T11:50:00.181Z,86.85
2017-11-24T11:51:10.182Z,87.04
2017-11-24T11:52:20.176Z,86.94
2017-11-24T11:53:29.637Z,86.57
2017-11-24T11:54:39.354Z,87.33
2017-11-24T11:55:49.081Z,87.14
2017-11-24T11:56:58.784Z,87.23
2017-11-24T11:58:08.519Z,87.81
2017-11-24T11:59:18.518Z,87.43
2017-11-24T12:00:28.277Z,88
2017-11-24T12:01:38.063Z,87.9
2017-11-24T12:02:47.329Z,88.19
2017-11-24T12:03:57.142Z,88.09
2017-11-24T12:05:06.970Z,88.57
2017-11-24T12:06:17.099Z,88.86
2017-11-24T12:07:26.927Z,88.86
2017-11-24T12:08:36.775Z,88.86
2017-11-24T12:09:46.662Z,88.48
2017-11-24T12:10:56.277Z,88.86
2017-11-24T12:12:06.102Z,88.95
2017-11-24T12:13:16.207Z,88.91
2017-11-24T12:14:26.045Z,89.43
2017-11-24T12:15:35.820Z,89.48
2017-11-24T12:16:46.105Z,89.2
2017-11-24T12:17:56.139Z,89.15
2017-11-24T12:19:05.920Z,89.39
2017-11-24T12:20:15.640Z,90.34
2017-11-24T12:21:25.112Z,89.48
2017-11-24T12:22:35.169Z,89.29
2017-11-24T12:23:45.191Z,90.06
2017-11-24T12:24:54.658Z,89.15
2017-11-24T12:26:04.659Z,89.39
2017-11-24T12:27:14.652Z,89.77
2017-11-24T12:28:24.113Z,89.62
2017-11-24T12:29:33.587Z,89.48
2017-11-24T12:30:43.589Z,89.48
2017-11-24T12:31:53.317Z,89.53
2017-11-24T12:33:03.029Z,89.43
2017-11-24T12:34:12.999Z,89.48
2017-11-24T12:35:22.192Z,89.96
2017-11-24T12:36:31.647Z,89.87
2017-11-24T12:37:41.101Z,89.48
2017-11-24T12:38:50.558Z,89.67
2017-11-24T12:40:00.254Z,89.81
2017-11-24T12:41:10.258Z,89.81
2017-11-24T12:42:19.724Z,89.77
2017-11-24T12:43:29.840Z,89.58
2017-11-24T12:44:39.408Z,90.25
2017-11-24T12:45:49.528Z,89.87
2017-11-24T12:46:59.661Z,90.44
2017-11-24T12:48:09.555Z,90.82
2017-11-24T12:49:19.659Z,90.06
2017-11-24T12:50:29.759Z,90.16
2017-11-24T12:51:39.585Z,90.63
2017-11-24T12:52:49.398Z,90.53
2017-11-24T12:53:59.527Z,90.63
2017-11-24T12:55:09.343Z,90.25
2017-11-24T12:56:19.684Z,90.63
2017-11-24T12:57:29.688Z,91.02
2017-11-24T12:58:39.663Z,91.11
2017-11-24T12:59:49.646Z,91.59
2017-11-24T13:00:59.635Z,91.39
2017-11-24T13:02:09.387Z,90.92
2017-11-24T13:03:19.399Z,91.49
2017-11-24T13:04:29.373Z,91.2
2017-11-24T13:05:39.369Z,91.88
2017-11-24T13:06:49.368Z,91.97
2017-11-24T13:07:58.720Z,91.88
2017-11-24T13:09:09.113Z,92.16
2017-11-24T13:10:18.833Z,92.25
2017-11-24T13:11:28.804Z,92.25
2017-11-24T13:12:38.808Z,92.45
2017-11-24T13:13:48.519Z,92.64
2017-11-24T13:14:58.262Z,93.4
2017-11-24T13:16:08.538Z,96.27
2017-11-24T13:17:18.272Z,97.47
2017-11-24T13:18:28.386Z,98.99
2017-11-24T13:19:38.122Z,99.99
2017-11-24T13:20:47.817Z,99.99
2017-11-24T13:21:57.537Z,99.99
2017-11-24T13:23:07.291Z,99.99
2017-11-24T13:24:17.015Z,99.99
2017-11-24T13:25:26.983Z,99.99
2017-11-24T13:26:36.720Z,99.99
2017-11-24T13:27:46.710Z,99.99
2017-11-24T13:28:56.702Z,99.99
2017-11-24T13:30:06.176Z,99.99
2017-11-24T13:31:15.372Z,99.99
2017-11-24T13:32:25.074Z,99.99
2017-11-24T13:33:34.790Z,99.99
2017-11-24T13:34:44.798Z,99.99
2017-11-24T13:35:54.777Z,99.99
2017-11-24T13:37:04.497Z,99.99
2017-11-24T13:38:13.695Z,99.99
2017-11-24T13:39:23.429Z,99.99
2017-11-24T13:40:33.145Z,99.99
2017-11-24T13:41:42.872Z,99.99
2017-11-24T13:42:52.852Z,99.99
2017-11-24T13:44:02.327Z,99.99
2017-11-24T13:45:12.098Z,99.99
2017-11-24T13:46:21.300Z,99.99
2017-11-24T13:47:31.029Z,99.99
2017-11-24T13:48:40.759Z,99.99
2017-11-24T13:49:50.475Z,99.99
2017-11-24T13:51:00.692Z,99.99
2017-11-24T13:52:10.732Z,99.99
2017-11-24T13:53:20.770Z,99.99
2017-11-24T13:54:30.809Z,99.99
2017-11-24T13:55:40.791Z,99.99
2017-11-24T13:56:50.507Z,99.99
2017-11-24T13:58:00.248Z,99.99
2017-11-24T13:59:09.694Z,99.99
2017-11-24T14:00:19.415Z,99.99
2017-11-24T14:01:29.388Z,99.99
2017-11-24T14:02:39.366Z,99.99
2017-11-24T14:03:49.183Z,99.99
2017-11-24T14:04:58.913Z,99.99
2017-11-24T14:06:08.644Z,99.99
2017-11-24T14:07:18.121Z,99.99
2017-11-24T14:08:28.157Z,99.99
2017-11-24T14:09:37.888Z,99.99
2017-11-24T14:10:47.597Z,99.99
2017-11-24T14:11:57.311Z,99.99
2017-11-24T14:13:07.029Z,99.99
2017-11-24T14:14:16.481Z,99.99
2017-11-24T14:15:26.464Z,99.99
2017-11-24T14:16:36.453Z,99.99
2017-11-24T14:17:45.932Z,99.99
2017-11-24T14:18:55.686Z,99.99
2017-11-24T14:20:05.408Z,99.99
2017-11-24T14:21:15.145Z,99.99
2017-11-24T14:22:25.148Z,99.99
2017-11-24T14:23:35.094Z,99.99
2017-11-24T14:24:44.840Z,99.99
2017-11-24T14:25:54.851Z,99.99
2017-11-24T14:27:04.897Z,99.99
2017-11-24T14:28:14.676Z,99.99
2017-11-24T14:29:24.147Z,99.99
2017-11-24T14:30:33.865Z,99.99
2017-11-24T14:31:43.590Z,99.99
2017-11-24T14:32:53.571Z,99.99
2017-11-24T14:34:03.405Z,99.99
2017-11-24T14:35:13.124Z,99.99
2017-11-24T14:36:23.111Z,99.99
2017-11-24T14:37:32.841Z,99.99
2017-11-24T14:38:42.603Z,99.99
2017-11-24T14:39:52.080Z,99.99
2017-11-24T14:41:02.095Z,99.99
2017-11-24T14:42:11.821Z,99.99
2017-11-24T14:43:21.283Z,99.99
2017-11-24T14:44:31.023Z,99.99
2017-11-24T14:45:41.004Z,99.99
2017-11-24T14:46:50.492Z,99.99
2017-11-24T14:48:00.213Z,99.99
2017-11-24T14:49:10.006Z,99.99
2017-11-24T14:50:19.993Z,99.99
2017-11-24T14:51:29.715Z,99.99
2017-11-24T14:52:39.926Z,99.99
2017-11-24T14:53:49.936Z,99.99
2017-11-24T14:54:59.683Z,99.99
2017-11-24T14:56:09.409Z,99.99
2017-11-24T14:57:19.410Z,99.99
2017-11-24T14:58:28.872Z,99.99
2017-11-24T14:59:38.588Z,99.99